• Join FlightAware (Why Join?)
  • Login
  • US Flag 
01:50PM EDT


 

Airport Tracker/Info


-or-


 

Live Flight TrackerFlight Track Log ✈ UAL4115 ✈ 19-Apr-2013 ✈ MMGL / GDL - KIAH

Flight Track Log - Related Links

Times and Time Zones

All times are in EDT time to prevent confusion due to time zone crossing. See the UAL4115 flight status page for this flight to view local times or setup timezone preferences in your user account.

Time Position Orientation Groundspeed Altitude Reporting Facility
EDT Latitude Longitude Course Direction KTS MPH feet Rate Location/Type
08:21AM 25.7392 -100.2269 64° Northeast 555 639 35,000  Level Houston Center
08:22AM 25.8175 -100.0450 64° Northeast 554 638 35,000  Level Houston Center
08:23AM 25.9186 -99.9267 46° Northeast 538 619 35,000  Level Houston Center
08:24AM 26.0175 -99.8053 48° Northeast 532 612 35,000  Level Houston Center
08:25AM 26.1153 -99.6853 48° Northeast 528 608 35,000  Level Houston Center
08:26AM 26.2153 -99.5636 47° Northeast 530 610 35,000  Level Houston Center
08:27AM 26.3156 -99.4417 47° Northeast 532 612 35,000  Level Houston Center
08:28AM 26.4136 -99.3200 48° Northeast 531 611 35,000  Level Houston Center
08:29AM 26.5169 -99.2019 46° Northeast 533 613 35,000  Level Houston Center
08:30AM 26.6269 -99.0978 40° Northeast 525 604 35,000  Level Houston Center
08:31AM 26.7592 -98.9725 40° Northeast 522 601 35,000  Level Houston Center
08:32AM 26.8683 -98.8647 41° Northeast 524 603 35,000  Level Houston Center
08:33AM 26.9786 -98.7575 41° Northeast 527 606 35,000  Level Houston Center
08:35AM 27.0883 -98.6486 41° Northeast 530 610 35,000  Level Houston Center
08:36AM 27.1983 -98.5419 41° Northeast 529 609 35,000  Level Houston Center
08:37AM 27.3081 -98.4325 42° Northeast 531 611 35,000  Level Houston Center
08:38AM 27.4422 -98.3019 41° Northeast 534 615 35,000  Level Houston Center
08:39AM 27.5536 -98.1919 41° Northeast 535 616 35,000  Level Houston Center
08:40AM 27.6661 -98.0797 41° Northeast 539 620 35,000 -60 Level Houston Center
08:41AM 27.7792 -97.9667 41° Northeast 544 626 34,900  Descending Houston Center
08:42AM 27.8936 -97.8536 41° Northeast 547 629 35,000  Climbing Houston Center
08:43AM 28.0086 -97.7389 41° Northeast 551 634 35,000  Level Houston Center
08:44AM 28.1231 -97.6247 41° Northeast 553 636 35,000  Level Houston Center
08:45AM 28.2617 -97.4856 41° Northeast 555 639 35,000  Level Houston Center
08:46AM 28.3778 -97.3683 42° Northeast 559 643 35,000  Level Houston Center
08:47AM 28.4939 -97.2511 42° Northeast 559 643 35,000  Level Houston Center
08:48AM 28.6097 -97.1319 42° Northeast 563 648 35,000 -540 Level Houston Center
08:49AM 28.7256 -97.0144 42° Northeast 561 646 34,000 -1,740 Descending Houston Center
08:50AM 28.8367 -96.9011 42° Northeast 541 623 31,500 -3,540 Descending Houston Center
08:51AM 28.9669 -96.7672 42° Northeast 531 611 26,800 -3,840 Descending Houston Center
08:52AM 29.0747 -96.6536 43° Northeast 532 612 23,700 -2,640 Descending Houston Center
08:53AM 29.1753 -96.5514 42° Northeast 499 574 21,400 -2,460 Descending Houston Center
08:53AM 29.2094 -96.5081 48° Northeast 476 548 20,300 -2,700 Descending Houston Center
08:54AM 29.2536 -96.4342 56° Northeast 471 542 18,700 -2,460 Descending Houston Center
08:54AM 29.2847 -96.3825 55° Northeast 462 532 17,800 -2,340 Descending Houston Center
08:55AM 29.3508 -96.2939 49° Northeast 442 509 16,000 -2,220 Descending Houston Center
08:56AM 29.4253 -96.2439 30° Northeast 434 499 14,000 -2,100 Descending Houston Center
08:57AM 29.5422 -96.1647 30° Northeast 410 472 12,000 -1,620 Descending Houston Center
08:58AM 29.5964 -96.0642 58° Northeast 372 428 10,800 -1,020 Descending Houston Center
08:59AM 29.6447 -95.9706 59° Northeast 372 428 10,000 -480 Descending Houston Center
09:00AM 29.6994 -95.8608 60° Northeast 390 449 9,900  Descending Houston Center
09:00AM 29.7228 -95.8150 60° Northeast 391 450 10,000  Climbing Houston Center
09:01AM 29.7528 -95.7547 60° Northeast 385 443 9,900 -900 Descending Houston Center
09:02AM 29.8058 -95.6503 60° Northeast 320 368 8,500 -1,260 Descending Houston Center
09:02AM 29.8172 -95.6258 62° Northeast 293 337 8,300 -1,500 Descending Houston Center
09:03AM 29.8453 -95.5717 59° Northeast 293 337 7,000 -1,380 Descending Houston Center
09:04AM 29.8819 -95.4967 61° Northeast 274 315 5,900 -540 Descending Houston Center
09:05AM 29.8967 -95.4131 78° East 277 319 5,900  Level Houston Center
09:06AM 29.8969 -95.3206 90° East 285 328 5,900  Level Houston Center
09:07AM 29.8967 -95.2278 90° East 288 331 5,900 -1,140 Level Houston Center
09:08AM 29.9050 -95.1444 83° East 272 313 3,600 -1,920 Descending Houston Center
09:09AM 29.9539 -95.1608 344° North 232 267 2,000 -960 Descending Houston Center
09:10AM 29.9778 -95.2097 299° West 211 243 1,700 -660 Descending Houston Center
09:11AM 29.9786 -95.2656 271° West 164 189 700 -780 Descending Houston Center
09:12AM 29.9775 -95.3042 268° West 152 175 200 -540 Descending Houston Center